»·PEaware :: CGVZB CYSH-CYHU

CGVZB :: CYSH-CYHU

FLIGHT INFORMATION

Flight Status: Arrived
Operator: Unknown
More flights by this operator :: More flights under this callsign
Pilot: Alan S. (10569)
Aircraft: Unknown
(KODI)
More flights by this aircraft type
Origin: CYSH Montague
Canada
Destination: CYHU Montreal/St-Hubert
Canada
More flights between these airports :: More routes between these airports
Route: YOW T616 YUL
File this flight plan on PilotEdge
Remarks:
Altitude:
(Current/Filed)
7,000ft
Speed:
(Current/Filed)
160kts
Departed: 14-Mar-18 08:36 PM
Arrived: 14-Mar-18 09:43 PM
Distance/Time
Traveled:
112nm/1:07
Distance/Time
To Go:
Arrived

Flight Plot

Page will automatically refresh every two minutes.

Flight plan parsing failed; only flown route is shown


Map Options




Map Legend


Flown Route
Filed Route
Departure Airport
Arrival Airport
Navaid (VOR, NDB)
Fix

Horizontal Profiles

Position Reports

Time Latitude Longitude Heading Altitude Ground
Speed
14-Mar-18 20:26 44.947537 -75.940122 137 418ft 0kts
14-Mar-18 20:27 44.947537 -75.940122 137 418ft 0kts
14-Mar-18 20:28 44.947537 -75.940122 137 418ft 0kts
14-Mar-18 20:29 44.947537 -75.940122 137 418ft 0kts
14-Mar-18 20:30 44.947537 -75.940122 137 418ft 0kts
14-Mar-18 20:31 44.947533 -75.940117 137 418ft 0kts
14-Mar-18 20:32 44.946361 -75.939469 188 416ft 8kts
14-Mar-18 20:33 44.944411 -75.942475 227 417ft 12kts
14-Mar-18 20:34 44.942507 -75.945728 251 411ft 10kts
14-Mar-18 20:35 44.947160 -75.937218 48 695ft 74kts
14-Mar-18 20:36 44.960566 -75.910466 55 1741ft 86kts
14-Mar-18 20:37 44.971982 -75.877612 64 2630ft 107kts
14-Mar-18 20:38 44.994670 -75.857797 6 3711ft 102kts
14-Mar-18 20:39 45.023487 -75.850099 12 4593ft 108kts
14-Mar-18 20:40 45.051651 -75.838296 14 5559ft 102kts
14-Mar-18 20:41 45.079124 -75.827183 15 6435ft 109kts
14-Mar-18 20:42 45.109964 -75.830557 353 7023ft 125kts
14-Mar-18 20:43 45.146849 -75.837566 353 7010ft 137kts
14-Mar-18 20:44 45.184677 -75.845017 353 7009ft 138kts
14-Mar-18 20:45 45.222591 -75.852604 352 7010ft 138kts
14-Mar-18 20:46 45.260466 -75.860181 353 7009ft 137kts
14-Mar-18 20:47 45.298321 -75.867718 351 7010ft 137kts
14-Mar-18 20:48 45.336258 -75.875323 352 7009ft 137kts
14-Mar-18 20:49 45.374004 -75.882929 352 7009ft 137kts
14-Mar-18 20:50 45.411919 -75.890529 351 7010ft 137kts
14-Mar-18 20:51 45.440880 -75.871838 71 7013ft 141kts
14-Mar-18 20:52 45.448742 -75.816701 77 7009ft 142kts
14-Mar-18 20:53 45.454714 -75.761175 79 7009ft 142kts
14-Mar-18 20:54 45.460293 -75.705267 78 7009ft 142kts
14-Mar-18 20:55 45.465785 -75.649104 79 6982ft 153kts
14-Mar-18 20:56 45.472044 -75.584819 79 7009ft 168kts
14-Mar-18 20:57 45.478410 -75.518390 79 7009ft 169kts
14-Mar-18 20:58 45.484780 -75.452035 78 7008ft 169kts
14-Mar-18 20:59 45.490986 -75.386107 79 7009ft 169kts
14-Mar-18 21:00 45.497200 -75.320397 80 7008ft 169kts
14-Mar-18 21:01 45.503410 -75.253814 80 7009ft 169kts
14-Mar-18 21:02 45.509581 -75.187374 79 7009ft 169kts
14-Mar-18 21:03 45.515771 -75.120520 80 7008ft 170kts
14-Mar-18 21:04 45.521875 -75.053935 80 7008ft 169kts
14-Mar-18 21:05 45.527963 -74.987163 79 7008ft 170kts
14-Mar-18 21:06 45.534007 -74.920347 79 7009ft 169kts
14-Mar-18 21:07 45.540004 -74.853710 79 7010ft 169kts
14-Mar-18 21:08 45.545968 -74.786862 79 7008ft 169kts
14-Mar-18 21:09 45.551874 -74.720143 79 7008ft 170kts
14-Mar-18 21:10 45.557779 -74.653304 79 7008ft 170kts
14-Mar-18 21:11 45.563645 -74.586134 80 7009ft 170kts
14-Mar-18 21:12 45.569461 -74.519317 79 7009ft 169kts
14-Mar-18 21:13 45.575217 -74.452597 79 7008ft 169kts
14-Mar-18 21:14 45.580985 -74.385586 79 7009ft 169kts
14-Mar-18 21:15 45.586382 -74.322962 79 7534ft 146kts
14-Mar-18 21:16 45.591690 -74.260687 80 7533ft 166kts
14-Mar-18 21:17 45.597206 -74.194815 80 7529ft 169kts
14-Mar-18 21:18 45.602759 -74.128608 80 7195ft 167kts
14-Mar-18 21:19 45.607384 -74.072703 80 6797ft 165kts
14-Mar-18 21:20 45.611519 -74.022820 79 6452ft 176kts
14-Mar-18 21:21 45.614301 -73.952951 92 6001ft 180kts
14-Mar-18 21:22 45.608544 -73.881706 94 5536ft 180kts
14-Mar-18 21:23 45.602845 -73.811064 94 5074ft 179kts
14-Mar-18 21:24 45.597117 -73.741144 94 4609ft 174kts
14-Mar-18 21:25 45.591511 -73.672995 94 4142ft 170kts
14-Mar-18 21:26 45.586034 -73.606957 94 3676ft 164kts
14-Mar-18 21:27 45.580658 -73.542612 94 3217ft 163kts
14-Mar-18 21:28 45.575279 -73.478758 94 3003ft 161kts
14-Mar-18 21:29 45.569825 -73.415035 94 3010ft 162kts
14-Mar-18 21:30 45.566979 -73.350952 81 3011ft 162kts
14-Mar-18 21:31 45.592272 -73.302328 43 3008ft 158kts
14-Mar-18 21:32 45.622524 -73.255897 43 3009ft 160kts
14-Mar-18 21:33 45.660683 -73.233453 2 3008ft 154kts
14-Mar-18 21:34 45.696662 -73.212784 82 3003ft 160kts
14-Mar-18 21:35 45.663035 -73.193335 224 2998ft 156kts
14-Mar-18 21:36 45.633502 -73.238200 229 3008ft 155kts
14-Mar-18 21:37 45.606223 -73.280623 229 2450ft 139kts
14-Mar-18 21:38 45.580463 -73.320975 229 1695ft 135kts
14-Mar-18 21:39 45.556810 -73.357882 230 1042ft 108kts
14-Mar-18 21:40 45.539078 -73.385226 230 514ft 92kts
14-Mar-18 21:41 45.522583 -73.411180 230 92ft 74kts
14-Mar-18 21:42 45.516136 -73.420954 231 93ft 12kts
14-Mar-18 21:43 45.512001 -73.427179 223 93ft 3kts
14-Mar-18 21:44 45.509856 -73.427572 113 93ft 10kts
14-Mar-18 21:45 45.510070 -73.422971 83 93ft 12kts
14-Mar-18 21:46 45.510272 -73.420075 92 93ft 0kts
14-Mar-18 21:47 45.510269 -73.420021 93 93ft 0kts
14-Mar-18 21:48 45.510269 -73.420021 93 93ft 0kts
14-Mar-18 21:49 45.510269 -73.420021 93 93ft 0kts
14-Mar-18 21:50 45.510269 -73.420021 93 93ft 0kts
14-Mar-18 21:51 45.510269 -73.420021 93 93ft 0kts
14-Mar-18 21:52 45.510269 -73.420021 93 93ft 0kts
14-Mar-18 21:53 45.510269 -73.420021 93 93ft 0kts
14-Mar-18 21:54 45.510269 -73.420021 93 93ft 0kts
14-Mar-18 21:55 45.510269 -73.420021 93 93ft 0kts
14-Mar-18 21:56 45.510269 -73.420021 93 93ft 0kts

Navigation Log

Ident Type
Flight plan parsing failed, navigation log unavailable